Whitestone, Texas
Current Conditions -  °F | °C
As of 5:35 AM on Friday 24 Oct 2014 (Local Time) from KRYW Reporting Station
Clear Clear  
Wind Chill: 64°   Ceiling: Unl
Heat Index: 64°   Visibility: 10mi
Dew Point: 56°   Wind: 3mph
Humidity: 73%   Direction: 170°S
Pressure: 30.14"   Gusts: NA
Location:  30.558°N, 97.9247°W
Report Text: KRYW 241035Z AUTO 17003KT 10SM CLR 18/13 A3014 RMK AO2 T01800132
Loading
Personal Weather Stations






























Interactive Weather Map
Tropical Storm Tracking
New forecast layout! Learn more

10-Day Weather Forecast

Advertisements
Track Severe Weather on mobile